createdAt,value
2023-03-18T00:00:21.620Z,4.60
2023-03-18T00:01:21.592Z,4.80
2023-03-18T00:02:21.599Z,5.00
2023-03-18T00:03:21.628Z,4.70
2023-03-18T00:04:21.567Z,4.80
2023-03-18T00:05:21.564Z,5.00
2023-03-18T00:06:21.649Z,5.20
2023-03-18T00:07:21.520Z,4.80
2023-03-18T00:08:21.511Z,4.80
2023-03-18T00:09:21.501Z,5.30
2023-03-18T00:10:21.541Z,5.50
2023-03-18T00:11:21.504Z,5.30
2023-03-18T00:12:21.462Z,5.60
2023-03-18T00:13:21.473Z,5.10
2023-03-18T00:14:21.446Z,5.70
2023-03-18T00:15:21.455Z,5.40
2023-03-18T00:16:21.535Z,5.20
2023-03-18T00:17:21.422Z,5.20
2023-03-18T00:18:21.416Z,5.10
2023-03-18T00:19:21.407Z,5.40
2023-03-18T00:20:21.435Z,5.10
2023-03-18T00:21:21.376Z,5.10
2023-03-18T00:22:21.367Z,4.60
2023-03-18T00:23:21.357Z,5.50
2023-03-18T00:24:21.347Z,5.80
2023-03-18T00:25:21.367Z,5.10
2023-03-18T00:26:21.320Z,5.40
2023-03-18T00:27:21.317Z,5.20
2023-03-18T00:28:21.299Z,5.90
2023-03-18T00:29:21.291Z,5.60
2023-03-18T00:30:21.288Z,5.60
2023-03-18T00:31:21.282Z,5.60
2023-03-18T00:32:21.259Z,5.20
2023-03-18T00:33:21.250Z,5.70
2023-03-18T00:34:21.241Z,5.40
2023-03-18T00:35:21.250Z,5.70
2023-03-18T00:36:21.212Z,5.80
2023-03-18T00:37:21.202Z,5.60
2023-03-18T00:38:21.207Z,5.40
2023-03-18T00:39:21.183Z,4.90
2023-03-18T00:40:21.182Z,5.20
2023-03-18T00:41:21.167Z,5.10
2023-03-18T00:42:21.151Z,5.50
2023-03-18T00:43:21.143Z,5.50
2023-03-18T00:44:21.133Z,9.00
2023-03-18T00:45:21.142Z,9.80
2023-03-18T00:46:21.114Z,9.70
2023-03-18T00:47:21.104Z,9.60
2023-03-18T00:48:21.077Z,8.30
2023-03-18T00:49:21.074Z,10.00
2023-03-18T00:50:21.076Z,9.80
2023-03-18T00:51:21.057Z,9.60
2023-03-18T00:52:21.036Z,9.80
2023-03-18T00:53:21.027Z,9.60
2023-03-18T00:54:21.025Z,9.50
2023-03-18T00:55:21.028Z,8.50
2023-03-18T00:56:20.998Z,8.40
2023-03-18T00:57:20.988Z,10.20
2023-03-18T00:58:20.984Z,10.10
2023-03-18T00:59:20.981Z,9.60
2023-03-18T01:00:20.993Z,9.70
2023-03-18T01:01:21.019Z,9.20
2023-03-18T01:02:21.031Z,9.40
2023-03-18T01:03:20.924Z,8.40
2023-03-18T01:04:20.903Z,8.30
2023-03-18T01:05:20.922Z,8.40
2023-03-18T01:06:20.897Z,8.90
2023-03-18T01:07:20.886Z,8.30
2023-03-18T01:08:20.905Z,9.20
2023-03-18T01:09:20.868Z,7.80
2023-03-18T01:10:20.870Z,7.60
2023-03-18T01:11:20.846Z,7.90
2023-03-18T01:12:20.826Z,8.20
2023-03-18T01:13:20.820Z,8.40
2023-03-18T01:14:20.814Z,8.40
2023-03-18T01:15:20.824Z,9.20
2023-03-18T01:16:20.828Z,8.80
2023-03-18T01:17:20.780Z,8.60
2023-03-18T01:18:20.764Z,8.40
2023-03-18T01:19:21.096Z,7.30
2023-03-18T01:20:20.761Z,7.10
2023-03-18T01:21:20.731Z,6.70
2023-03-18T01:22:20.728Z,6.30
2023-03-18T01:23:20.714Z,6.60
2023-03-18T01:24:20.701Z,6.50
2023-03-18T01:25:20.719Z,6.30
2023-03-18T01:26:20.692Z,5.90
2023-03-18T01:27:20.670Z,6.80
2023-03-18T01:28:20.653Z,6.90
2023-03-18T01:29:20.643Z,7.60
2023-03-18T01:30:20.681Z,13.40
2023-03-18T01:31:20.686Z,32.10
2023-03-18T01:32:20.623Z,13.50
2023-03-18T01:33:20.607Z,9.00
2023-03-18T01:34:20.591Z,7.00
2023-03-18T01:35:20.605Z,6.50
2023-03-18T01:36:20.564Z,7.00
2023-03-18T01:37:20.564Z,6.40
2023-03-18T01:38:20.545Z,6.70
2023-03-18T01:39:20.550Z,7.10
2023-03-18T01:40:20.548Z,6.50
2023-03-18T01:41:20.517Z,6.90
2023-03-18T01:42:20.507Z,6.20
2023-03-18T01:43:20.526Z,6.60
2023-03-18T01:44:20.490Z,6.40
2023-03-18T01:45:20.496Z,6.20
2023-03-18T01:46:20.466Z,6.80
2023-03-18T01:47:20.458Z,6.60
2023-03-18T01:48:20.447Z,6.60
2023-03-18T01:49:20.435Z,6.90
2023-03-18T01:50:20.437Z,6.10
2023-03-18T01:51:20.431Z,6.00
2023-03-18T01:52:20.395Z,6.20
2023-03-18T01:53:20.415Z,6.40
2023-03-18T01:54:20.381Z,6.60
2023-03-18T01:55:20.393Z,6.00
2023-03-18T01:56:20.348Z,6.60
2023-03-18T01:57:20.337Z,6.20
2023-03-18T01:58:20.328Z,5.90
2023-03-18T01:59:20.328Z,6.50
2023-03-18T02:00:20.318Z,5.90
2023-03-18T02:01:20.337Z,6.40
2023-03-18T02:02:20.288Z,6.20
2023-03-18T02:03:20.304Z,6.20
2023-03-18T02:04:20.259Z,6.00
2023-03-18T02:10:22.748Z,6.30
2023-03-18T02:11:06.011Z,6.20
2023-03-18T02:12:06.000Z,6.50
2023-03-18T02:13:05.999Z,6.10
2023-03-18T02:14:05.988Z,6.30
2023-03-18T02:15:05.999Z,6.40
2023-03-18T02:16:05.961Z,6.50
2023-03-18T02:17:05.981Z,7.00
2023-03-18T02:18:05.996Z,7.10
2023-03-18T02:19:05.931Z,7.00
2023-03-18T02:20:05.937Z,6.90
2023-03-18T02:21:05.965Z,6.40
2023-03-18T02:22:05.893Z,7.20
2023-03-18T02:23:05.916Z,6.10
2023-03-18T02:24:05.882Z,7.10
2023-03-18T02:25:05.902Z,7.00
2023-03-18T02:26:05.887Z,6.90
2023-03-18T02:27:05.853Z,7.00
2023-03-18T02:28:05.835Z,6.50
2023-03-18T02:29:05.834Z,7.70
2023-03-18T02:30:05.826Z,6.80
2023-03-18T02:31:05.894Z,7.30
2023-03-18T02:32:05.797Z,7.50
2023-03-18T02:33:05.888Z,7.30
2023-03-18T02:34:05.786Z,7.30
2023-03-18T02:35:05.768Z,7.10
2023-03-18T02:36:05.758Z,7.50
2023-03-18T02:37:05.748Z,6.90
2023-03-18T02:38:05.743Z,7.50
2023-03-18T02:39:05.737Z,7.90
2023-03-18T02:40:05.751Z,7.50
2023-03-18T02:41:05.723Z,7.20
2023-03-18T02:42:05.680Z,7.50
2023-03-18T02:43:05.681Z,8.00
2023-03-18T02:44:05.669Z,7.80
2023-03-18T02:45:05.663Z,8.40
2023-03-18T02:46:05.786Z,7.70
2023-03-18T02:47:05.662Z,7.90
2023-03-18T02:48:05.626Z,7.80
2023-03-18T02:49:05.624Z,7.90
2023-03-18T02:50:05.606Z,8.50
2023-03-18T02:51:05.620Z,7.70
2023-03-18T02:52:05.585Z,8.80
2023-03-18T02:53:05.598Z,7.80
2023-03-18T02:54:05.569Z,8.50
2023-03-18T02:55:05.565Z,8.50
2023-03-18T02:56:05.558Z,8.30
2023-03-18T02:57:05.549Z,7.90
2023-03-18T02:58:05.567Z,8.20
2023-03-18T02:59:05.557Z,8.40
2023-03-18T03:00:05.505Z,9.00
2023-03-18T03:01:05.563Z,7.70
2023-03-18T03:02:05.485Z,8.20
2023-03-18T03:03:05.597Z,7.60
2023-03-18T03:04:05.462Z,8.90
2023-03-18T03:05:05.467Z,8.90
2023-03-18T03:06:05.452Z,13.20
2023-03-18T03:07:05.436Z,10.30
2023-03-18T03:08:05.413Z,8.70
2023-03-18T03:09:05.425Z,9.10
2023-03-18T03:10:05.402Z,8.80
2023-03-18T03:11:05.394Z,7.90
2023-03-18T03:12:05.382Z,8.20
2023-03-18T03:13:05.366Z,8.00
2023-03-18T03:14:05.361Z,8.00
2023-03-18T03:15:05.349Z,8.70
2023-03-18T03:16:05.377Z,8.60
2023-03-18T03:17:05.330Z,8.80
2023-03-18T03:18:05.331Z,8.50
2023-03-18T03:19:05.297Z,9.20
2023-03-18T03:20:05.297Z,8.80
2023-03-18T03:21:05.305Z,9.10
2023-03-18T03:22:05.283Z,8.80
2023-03-18T03:23:05.261Z,7.90
2023-03-18T03:24:05.260Z,8.50
2023-03-18T03:25:05.250Z,8.60
2023-03-18T03:26:05.249Z,9.20
2023-03-18T03:27:05.213Z,8.30
2023-03-18T03:28:05.213Z,8.90
2023-03-18T03:29:05.199Z,8.80
2023-03-18T03:30:05.189Z,8.70
2023-03-18T03:31:05.240Z,7.90
2023-03-18T03:32:05.163Z,8.30
2023-03-18T03:33:05.215Z,9.00
2023-03-18T03:34:05.161Z,8.90
2023-03-18T03:35:05.138Z,8.40
2023-03-18T03:36:05.198Z,9.40
2023-03-18T03:37:05.116Z,8.20
2023-03-18T03:38:05.105Z,8.60
2023-03-18T03:39:05.086Z,9.10
2023-03-18T03:40:05.099Z,9.10
2023-03-18T03:41:05.078Z,9.20
2023-03-18T03:42:05.065Z,9.50
2023-03-18T03:43:05.049Z,8.60
2023-03-18T03:44:05.055Z,9.10
2023-03-18T03:45:05.029Z,9.10
2023-03-18T03:46:05.095Z,9.60
2023-03-18T03:47:05.007Z,8.70
2023-03-18T03:48:05.000Z,9.50
2023-03-18T03:49:04.988Z,8.90
2023-03-18T03:50:04.979Z,8.50
2023-03-18T03:51:04.971Z,8.70
2023-03-18T03:52:04.960Z,8.60
2023-03-18T03:53:04.950Z,9.50
2023-03-18T03:54:04.935Z,9.30
2023-03-18T03:55:04.922Z,9.00
2023-03-18T03:56:04.929Z,9.40
2023-03-18T03:57:04.900Z,8.70
2023-03-18T03:58:04.900Z,9.30
2023-03-18T03:59:04.908Z,9.40
2023-03-18T04:00:04.871Z,8.30
2023-03-18T04:01:04.874Z,9.50
2023-03-18T04:02:04.867Z,9.20
2023-03-18T04:03:04.842Z,9.00
2023-03-18T04:04:04.859Z,8.40
2023-03-18T04:05:04.814Z,9.40
2023-03-18T04:06:04.827Z,9.40
2023-03-18T04:07:04.793Z,9.70
2023-03-18T04:08:04.784Z,10.10
2023-03-18T04:09:04.783Z,10.40
2023-03-18T04:10:04.764Z,11.40
2023-03-18T04:11:04.765Z,9.60
2023-03-18T04:12:04.746Z,9.80
2023-03-18T04:13:04.725Z,9.40
2023-03-18T04:14:04.725Z,9.80
2023-03-18T04:15:04.706Z,8.90
2023-03-18T04:16:04.765Z,9.60
2023-03-18T04:17:04.686Z,9.20
2023-03-18T04:18:04.690Z,8.90
2023-03-18T04:19:04.669Z,9.70
2023-03-18T04:20:04.675Z,9.20
2023-03-18T04:21:04.660Z,9.50
2023-03-18T04:22:04.651Z,9.60
2023-03-18T04:23:04.672Z,9.50
2023-03-18T04:24:04.625Z,10.30
2023-03-18T04:25:04.606Z,10.40
2023-03-18T04:26:04.609Z,10.40
2023-03-18T04:27:04.580Z,10.20
2023-03-18T04:28:04.576Z,10.10
2023-03-18T04:29:04.570Z,10.20
2023-03-18T04:30:04.558Z,10.20
2023-03-18T04:31:04.584Z,10.80
2023-03-18T04:32:04.530Z,10.60
2023-03-18T04:33:04.593Z,10.60
2023-03-18T04:34:04.511Z,10.20
2023-03-18T04:35:04.491Z,10.20
2023-03-18T04:36:04.531Z,11.40
2023-03-18T04:37:04.479Z,10.80
2023-03-18T04:38:04.471Z,10.50
2023-03-18T04:39:04.452Z,10.20
2023-03-18T04:40:04.442Z,10.40
2023-03-18T04:41:04.443Z,10.80
2023-03-18T04:42:04.425Z,10.80
2023-03-18T04:43:04.418Z,10.40
2023-03-18T04:44:04.407Z,10.50
2023-03-18T04:45:04.394Z,9.60
2023-03-18T04:46:04.394Z,10.90
2023-03-18T04:47:04.374Z,10.40
2023-03-18T04:48:04.402Z,9.80
2023-03-18T04:49:04.344Z,10.00
2023-03-18T04:50:04.364Z,9.90
2023-03-18T04:51:04.346Z,10.20
2023-03-18T04:52:04.317Z,10.10
2023-03-18T04:53:04.307Z,10.00
2023-03-18T04:54:04.312Z,10.20
2023-03-18T04:55:04.285Z,10.80
2023-03-18T04:56:04.306Z,10.20
2023-03-18T04:57:04.267Z,10.70
2023-03-18T04:58:04.257Z,10.80
2023-03-18T04:59:04.239Z,10.30
2023-03-18T05:00:04.239Z,10.50
2023-03-18T05:01:04.257Z,10.30
2023-03-18T05:02:04.221Z,11.00
2023-03-18T05:03:04.198Z,11.10
2023-03-18T05:04:04.195Z,11.10
2023-03-18T05:05:04.182Z,9.60
2023-03-18T05:06:04.198Z,10.70
2023-03-18T05:07:04.152Z,9.90
2023-03-18T05:08:04.152Z,10.70
2023-03-18T05:09:04.141Z,11.40
2023-03-18T05:10:04.134Z,10.20
2023-03-18T05:11:04.139Z,10.10
2023-03-18T05:12:04.114Z,10.60
2023-03-18T05:13:04.093Z,10.40
2023-03-18T05:14:04.094Z,10.30
2023-03-18T05:15:04.096Z,10.00
2023-03-18T05:16:04.091Z,9.70
2023-03-18T05:17:04.068Z,10.80
2023-03-18T05:18:04.046Z,10.60
2023-03-18T05:19:04.039Z,10.70
2023-03-18T05:20:04.028Z,10.10
2023-03-18T05:21:04.031Z,10.00
2023-03-18T05:22:04.070Z,10.80
2023-03-18T05:23:03.988Z,10.60
2023-03-18T05:24:03.999Z,10.70
2023-03-18T05:25:03.971Z,10.40
2023-03-18T05:26:03.970Z,11.20
2023-03-18T05:27:04.021Z,10.60
2023-03-18T05:28:03.940Z,13.00
2023-03-18T05:29:03.928Z,20.40
2023-03-18T05:30:03.922Z,14.70
2023-03-18T05:31:03.859Z,13.50
2023-03-18T05:32:03.913Z,12.00
2023-03-18T05:33:03.894Z,11.70
2023-03-18T05:34:03.881Z,11.30
2023-03-18T05:35:03.879Z,11.00
2023-03-18T05:36:03.871Z,11.10
2023-03-18T05:37:03.853Z,10.60
2023-03-18T05:38:03.865Z,11.90
2023-03-18T05:39:03.825Z,11.00
2023-03-18T05:40:03.821Z,11.00
2023-03-18T05:41:03.753Z,11.40
2023-03-18T05:42:03.771Z,11.70
2023-03-18T05:43:03.782Z,11.20
2023-03-18T05:44:03.782Z,12.10
2023-03-18T05:45:03.761Z,11.60
2023-03-18T05:46:03.747Z,12.10
2023-03-18T05:47:03.693Z,12.30
2023-03-18T05:48:03.690Z,11.80
2023-03-18T05:49:03.664Z,11.90
2023-03-18T05:50:03.653Z,11.40
2023-03-18T05:51:03.648Z,11.90
2023-03-18T05:52:03.645Z,11.30
2023-03-18T05:53:03.616Z,11.90
2023-03-18T05:54:03.605Z,12.20
2023-03-18T05:55:03.600Z,11.50
2023-03-18T05:56:03.589Z,12.30
2023-03-18T05:57:03.587Z,12.50
2023-03-18T05:58:03.576Z,11.80
2023-03-18T05:59:03.561Z,11.60
2023-03-18T06:00:03.553Z,12.50
2023-03-18T06:01:03.540Z,12.40
2023-03-18T06:02:03.668Z,12.40
2023-03-18T06:03:03.525Z,12.70
2023-03-18T06:04:03.514Z,11.80
2023-03-18T06:05:03.498Z,12.20
2023-03-18T06:06:03.490Z,12.90
2023-03-18T06:07:03.495Z,12.40
2023-03-18T06:08:03.470Z,12.70
2023-03-18T06:09:03.452Z,12.60
2023-03-18T06:10:03.455Z,12.80
2023-03-18T06:11:03.426Z,13.10
2023-03-18T06:12:03.439Z,13.50
2023-03-18T06:13:03.418Z,13.20
2023-03-18T06:14:03.410Z,12.60
2023-03-18T06:15:03.387Z,12.60
2023-03-18T06:16:03.388Z,12.90
2023-03-18T06:17:03.377Z,13.40
2023-03-18T06:18:03.361Z,13.00
2023-03-18T06:19:03.396Z,12.60
2023-03-18T06:20:03.344Z,12.30
2023-03-18T06:21:03.334Z,12.70
2023-03-18T06:22:03.370Z,12.70
2023-03-18T06:23:03.300Z,13.20
2023-03-18T06:24:03.309Z,13.20
2023-03-18T06:25:03.288Z,12.00
2023-03-18T06:26:03.281Z,12.20
2023-03-18T06:27:03.286Z,12.10
2023-03-18T06:28:03.267Z,12.60
2023-03-18T06:29:03.238Z,12.70
2023-03-18T06:30:03.245Z,12.10
2023-03-18T06:31:03.252Z,11.90
2023-03-18T06:32:03.237Z,12.10
2023-03-18T06:33:03.246Z,12.00
2023-03-18T06:34:03.201Z,11.40
2023-03-18T06:35:03.173Z,11.70
2023-03-18T06:36:03.237Z,11.40
2023-03-18T06:37:03.199Z,11.20
2023-03-18T06:38:03.167Z,11.50
2023-03-18T06:39:03.137Z,11.30
2023-03-18T06:40:03.128Z,11.60
2023-03-18T06:41:03.109Z,11.00
2023-03-18T06:42:03.117Z,12.60
2023-03-18T06:43:03.096Z,13.10
2023-03-18T06:44:03.091Z,11.40
2023-03-18T06:45:03.085Z,11.00
2023-03-18T06:46:03.116Z,11.20
2023-03-18T06:47:03.330Z,10.10
2023-03-18T06:48:03.051Z,10.60
2023-03-18T06:49:03.031Z,11.20
2023-03-18T06:50:03.024Z,9.90
2023-03-18T06:51:03.010Z,10.40
2023-03-18T06:52:03.025Z,10.60
2023-03-18T06:53:03.006Z,10.80
2023-03-18T06:54:02.981Z,10.10
2023-03-18T06:55:02.962Z,10.30
2023-03-18T06:56:02.962Z,10.10
2023-03-18T06:57:02.967Z,10.30
2023-03-18T06:58:02.944Z,10.70
2023-03-18T06:59:02.923Z,10.40
2023-03-18T07:00:02.930Z,11.30
2023-03-18T07:01:02.959Z,11.30
2023-03-18T07:02:02.926Z,11.80
2023-03-18T07:03:02.904Z,11.60
2023-03-18T07:04:02.911Z,11.00
2023-03-18T07:05:02.873Z,10.70
2023-03-18T07:06:02.852Z,10.90
2023-03-18T07:07:02.866Z,11.40
2023-03-18T07:08:02.845Z,10.10
2023-03-18T07:09:02.827Z,10.70
2023-03-18T07:10:02.908Z,11.20
2023-03-18T07:11:02.824Z,10.90
2023-03-18T07:12:02.827Z,10.40
2023-03-18T07:13:02.782Z,10.20
2023-03-18T07:14:02.777Z,9.80
2023-03-18T07:15:02.792Z,10.90
2023-03-18T07:16:02.783Z,10.80
2023-03-18T07:17:02.751Z,10.60
2023-03-18T07:18:02.719Z,9.90
2023-03-18T07:19:02.731Z,11.00
2023-03-18T07:20:02.707Z,9.70
2023-03-18T07:21:02.697Z,10.50
2023-03-18T07:22:02.690Z,10.00
2023-03-18T07:23:02.723Z,9.20
2023-03-18T07:24:02.661Z,10.40
2023-03-18T07:25:02.656Z,10.20
2023-03-18T07:26:02.642Z,10.70
2023-03-18T07:27:02.650Z,9.60
2023-03-18T07:28:02.613Z,10.80
2023-03-18T07:29:02.611Z,9.40
2023-03-18T07:30:02.594Z,10.10
2023-03-18T07:31:02.651Z,9.70
2023-03-18T07:32:02.602Z,10.10
2023-03-18T07:33:02.657Z,10.10
2023-03-18T07:34:02.558Z,9.90
2023-03-18T07:35:02.544Z,10.20
2023-03-18T07:36:02.579Z,10.50
2023-03-18T07:37:02.547Z,9.80
2023-03-18T07:38:02.515Z,10.20
2023-03-18T07:39:02.509Z,10.30
2023-03-18T07:40:02.487Z,10.30
2023-03-18T07:41:02.488Z,10.60
2023-03-18T07:42:02.484Z,10.00
2023-03-18T07:43:02.481Z,9.90
2023-03-18T07:44:02.458Z,10.50
2023-03-18T07:45:02.448Z,9.70
2023-03-18T07:46:02.464Z,9.90
2023-03-18T07:47:02.446Z,9.90
2023-03-18T07:48:02.416Z,10.50
2023-03-18T07:49:02.429Z,10.20
2023-03-18T07:50:02.381Z,9.50
2023-03-18T07:51:02.396Z,9.70
2023-03-18T07:52:02.386Z,9.60
2023-03-18T07:53:02.374Z,9.40
2023-03-18T07:54:02.420Z,9.50
2023-03-18T07:55:02.356Z,9.70
2023-03-18T07:56:02.356Z,10.10
2023-03-18T07:57:02.406Z,9.50
2023-03-18T07:58:02.329Z,9.20
2023-03-18T07:59:02.293Z,8.90
2023-03-18T08:00:02.289Z,8.60
2023-03-18T08:01:02.275Z,9.00
2023-03-18T08:02:02.282Z,9.00
2023-03-18T08:03:02.263Z,9.00
2023-03-18T08:04:02.293Z,8.20
2023-03-18T08:05:02.333Z,8.90
2023-03-18T08:06:02.214Z,8.50
2023-03-18T08:07:02.227Z,9.40
2023-03-18T08:08:02.211Z,9.20
2023-03-18T08:09:02.222Z,9.90
2023-03-18T08:10:02.181Z,9.20
2023-03-18T08:11:02.173Z,9.60
2023-03-18T08:12:02.187Z,9.10
2023-03-18T08:13:02.148Z,9.30
2023-03-18T08:14:02.139Z,8.70
2023-03-18T08:15:02.146Z,9.30
2023-03-18T08:16:02.168Z,8.60
2023-03-18T08:17:02.127Z,8.70
2023-03-18T08:18:02.103Z,9.50
2023-03-18T08:19:02.100Z,8.20
2023-03-18T08:20:02.083Z,9.20
2023-03-18T08:21:02.078Z,8.80
2023-03-18T08:22:02.087Z,8.40
2023-03-18T08:23:02.052Z,8.90
2023-03-18T08:24:02.032Z,9.60
2023-03-18T08:25:02.035Z,8.90
2023-03-18T08:26:02.067Z,8.90
2023-03-18T08:27:02.020Z,9.50
2023-03-18T08:28:01.992Z,8.60
2023-03-18T08:29:01.990Z,9.00
2023-03-18T08:30:03.828Z,8.10
2023-03-18T08:31:01.980Z,8.20
2023-03-18T08:32:01.977Z,8.10
2023-03-18T08:33:02.026Z,8.70
2023-03-18T08:34:01.941Z,8.30
2023-03-18T08:35:01.930Z,8.70
2023-03-18T08:36:02.034Z,8.50
2023-03-18T08:37:01.905Z,8.30
2023-03-18T08:38:01.936Z,8.40
2023-03-18T08:39:01.878Z,8.90
2023-03-18T08:40:01.866Z,9.00
2023-03-18T08:41:01.866Z,8.10
2023-03-18T08:42:01.835Z,8.80
2023-03-18T08:43:01.850Z,9.70
2023-03-18T08:44:01.821Z,9.00
2023-03-18T08:45:01.823Z,9.00
2023-03-18T08:46:01.828Z,9.10
2023-03-18T08:47:01.818Z,9.00
2023-03-18T08:48:01.797Z,9.40
2023-03-18T08:49:01.770Z,9.00
2023-03-18T08:50:01.777Z,9.20
2023-03-18T08:51:01.753Z,9.80
2023-03-18T08:52:01.746Z,9.30
2023-03-18T08:53:01.743Z,9.40
2023-03-18T08:54:01.730Z,9.70
2023-03-18T08:55:01.714Z,8.60
2023-03-18T08:56:02.960Z,9.10
2023-03-18T08:57:01.690Z,9.00
2023-03-18T08:58:01.699Z,9.20
2023-03-18T08:59:01.679Z,9.60
2023-03-18T09:00:01.649Z,9.30
2023-03-18T09:01:01.694Z,8.80
2023-03-18T09:02:01.628Z,9.10
2023-03-18T09:03:01.842Z,9.00
2023-03-18T09:04:01.621Z,9.30
2023-03-18T09:05:01.599Z,8.70
2023-03-18T09:06:01.610Z,9.30
2023-03-18T09:07:01.596Z,9.60
2023-03-18T09:08:01.585Z,9.50
2023-03-18T09:09:01.562Z,10.00
2023-03-18T09:10:01.576Z,9.30
2023-03-18T09:11:01.546Z,9.90
2023-03-18T09:12:01.523Z,9.40
2023-03-18T09:13:01.545Z,8.50
2023-03-18T09:14:01.519Z,8.50
2023-03-18T09:15:01.510Z,9.10
2023-03-18T09:16:01.489Z,8.90
2023-03-18T09:17:02.356Z,9.50
2023-03-18T09:18:11.093Z,9.50
2023-03-18T09:19:02.455Z,9.80
2023-03-18T09:20:01.444Z,9.60
2023-03-18T09:21:01.439Z,9.00
2023-03-18T09:22:01.425Z,8.90
2023-03-18T09:23:01.422Z,8.70
2023-03-18T09:24:01.412Z,8.50
2023-03-18T09:25:01.411Z,9.10
2023-03-18T09:26:01.383Z,8.20
2023-03-18T09:27:01.370Z,7.30
2023-03-18T09:28:01.372Z,7.30
2023-03-18T09:29:01.350Z,9.20
2023-03-18T09:30:01.327Z,7.80
2023-03-18T09:31:01.337Z,8.20
2023-03-18T09:32:01.311Z,8.30
2023-03-18T09:33:01.333Z,8.60
2023-03-18T09:34:01.288Z,7.90
2023-03-18T09:35:01.279Z,8.80
2023-03-18T09:36:01.288Z,6.90
2023-03-18T09:37:01.266Z,7.10
2023-03-18T09:38:01.248Z,7.10
2023-03-18T09:39:01.234Z,7.20
2023-03-18T09:40:01.219Z,6.60
2023-03-18T09:41:01.222Z,7.40
2023-03-18T09:42:01.199Z,6.60
2023-03-18T09:43:01.211Z,6.50
2023-03-18T09:44:01.186Z,6.70
2023-03-18T09:45:01.185Z,6.80
2023-03-18T09:46:01.213Z,6.60
2023-03-18T09:47:01.287Z,6.50
2023-03-18T09:48:01.153Z,6.70
2023-03-18T09:49:01.141Z,6.80
2023-03-18T09:50:01.122Z,6.80
2023-03-18T09:51:01.112Z,6.00
2023-03-18T09:52:01.092Z,5.90
2023-03-18T09:53:01.107Z,5.40
2023-03-18T09:54:01.074Z,5.20
2023-03-18T09:55:01.064Z,5.20
2023-03-18T09:56:01.059Z,5.80
2023-03-18T09:57:01.046Z,5.30
2023-03-18T09:58:01.050Z,6.30
2023-03-18T09:59:01.031Z,5.50
2023-03-18T10:00:01.016Z,5.80
2023-03-18T10:01:01.025Z,5.70
2023-03-18T10:02:01.001Z,5.70
2023-03-18T10:03:00.989Z,5.70
2023-03-18T10:04:01.151Z,5.30
2023-03-18T10:05:00.958Z,5.40
2023-03-18T10:06:00.949Z,6.10
2023-03-18T10:07:00.940Z,5.30
2023-03-18T10:08:00.960Z,5.70
2023-03-18T10:09:00.914Z,5.30
2023-03-18T10:10:00.917Z,5.40
2023-03-18T10:11:00.891Z,5.20
2023-03-18T10:12:00.881Z,5.40
2023-03-18T10:13:00.882Z,5.30
2023-03-18T10:14:00.861Z,5.60
2023-03-18T10:15:00.853Z,5.80
2023-03-18T10:16:00.859Z,5.40
2023-03-18T10:17:00.839Z,5.10
2023-03-18T10:18:00.837Z,4.90
2023-03-18T10:19:00.818Z,4.80
2023-03-18T10:20:00.805Z,4.70
2023-03-18T10:21:00.791Z,4.70
2023-03-18T10:22:00.785Z,4.90
2023-03-18T10:23:00.782Z,4.30
2023-03-18T10:24:00.765Z,5.00
2023-03-18T10:25:00.747Z,4.60
2023-03-18T10:26:00.742Z,5.30
2023-03-18T10:27:00.726Z,4.80
2023-03-18T10:28:00.734Z,4.40
2023-03-18T10:29:00.701Z,4.70
2023-03-18T10:30:00.699Z,4.50
2023-03-18T10:31:00.758Z,7.30
2023-03-18T10:32:00.681Z,5.70
2023-03-18T10:33:00.711Z,4.80
2023-03-18T10:34:00.659Z,4.60
2023-03-18T10:35:00.653Z,4.70
2023-03-18T10:36:00.667Z,4.50
2023-03-18T10:37:00.626Z,5.20
2023-03-18T10:38:00.632Z,5.20
2023-03-18T10:39:00.600Z,6.20
2023-03-18T10:40:00.600Z,4.60
2023-03-18T10:41:00.582Z,4.30
2023-03-18T10:42:00.576Z,4.30
2023-03-18T10:43:00.566Z,4.70
2023-03-18T10:44:00.547Z,4.30
2023-03-18T10:45:00.540Z,4.50
2023-03-18T10:46:00.574Z,5.00
2023-03-18T10:47:00.679Z,4.40
2023-03-18T10:48:00.526Z,4.60
2023-03-18T10:49:00.506Z,4.50
2023-03-18T10:50:00.490Z,4.10
2023-03-18T10:51:00.489Z,4.60
2023-03-18T10:52:00.470Z,4.80
2023-03-18T10:53:00.469Z,4.70
2023-03-18T10:54:00.462Z,4.50
2023-03-18T10:55:00.438Z,4.40
2023-03-18T10:56:00.422Z,4.70
2023-03-18T10:57:00.425Z,4.40
2023-03-18T10:58:00.414Z,4.10
2023-03-18T10:59:00.396Z,4.70
2023-03-18T11:00:00.395Z,4.10
2023-03-18T11:01:00.374Z,4.40
2023-03-18T11:02:00.418Z,3.90
2023-03-18T11:03:00.476Z,4.50
2023-03-18T11:04:00.347Z,4.50
2023-03-18T11:05:00.327Z,4.30
2023-03-18T11:06:01.469Z,4.60
2023-03-18T11:07:00.307Z,4.70
2023-03-18T11:08:00.335Z,4.20
2023-03-18T11:09:00.280Z,4.90
2023-03-18T11:10:00.279Z,4.30
2023-03-18T11:11:00.261Z,4.30
2023-03-18T11:12:00.262Z,4.50
2023-03-18T11:13:00.282Z,4.00
2023-03-18T11:14:00.240Z,4.50
2023-03-18T11:15:00.221Z,4.50
2023-03-18T11:16:00.241Z,4.60
2023-03-18T11:17:00.225Z,4.40
2023-03-18T11:18:00.212Z,4.50
2023-03-18T11:19:00.180Z,4.20
2023-03-18T11:20:00.180Z,4.80
2023-03-18T11:21:00.163Z,4.50
2023-03-18T11:22:00.144Z,4.60
2023-03-18T11:23:00.149Z,4.40
2023-03-18T11:24:00.148Z,4.50
2023-03-18T11:25:00.135Z,4.50
2023-03-18T11:26:00.151Z,4.70
2023-03-18T11:27:00.107Z,4.30
2023-03-18T11:28:00.101Z,4.20
2023-03-18T11:29:00.127Z,4.20
2023-03-18T11:30:00.161Z,4.60
2023-03-18T11:31:00.069Z,4.90
2023-03-18T11:32:00.063Z,4.70
2023-03-18T11:33:00.073Z,4.80
2023-03-18T11:34:00.040Z,4.60
2023-03-18T11:35:00.014Z,5.10
2023-03-18T11:36:00.065Z,4.20
2023-03-18T11:36:59.978Z,5.30
2023-03-18T11:37:59.978Z,4.80
2023-03-18T11:38:59.982Z,4.50
2023-03-18T11:39:59.959Z,4.80
2023-03-18T11:40:59.940Z,4.40
2023-03-18T11:41:59.942Z,4.90
2023-03-18T11:42:59.919Z,4.60
2023-03-18T11:43:59.930Z,4.70
2023-03-18T11:44:59.906Z,4.20
2023-03-18T11:45:59.890Z,5.00
2023-03-18T11:46:59.954Z,4.70
2023-03-18T11:47:59.884Z,4.70
2023-03-18T11:48:59.870Z,4.90
2023-03-18T11:49:59.851Z,4.40
2023-03-18T11:50:59.841Z,4.30
2023-03-18T11:51:59.830Z,4.40
2023-03-18T11:52:59.820Z,4.40
2023-03-18T11:53:59.827Z,3.80
2023-03-18T11:55:01.535Z,4.70
2023-03-18T11:55:59.792Z,4.60
2023-03-18T11:56:59.789Z,4.30
2023-03-18T11:57:59.812Z,4.80
2023-03-18T11:58:59.766Z,4.70
2023-03-18T11:59:59.746Z,4.20
2023-03-18T12:00:59.737Z,4.00
2023-03-18T12:01:59.778Z,4.30
2023-03-18T12:02:59.708Z,4.20
2023-03-18T12:03:59.728Z,3.70
2023-03-18T12:04:59.729Z,4.50
2023-03-18T12:05:59.694Z,4.20
2023-03-18T12:06:59.670Z,4.40
2023-03-18T12:07:59.660Z,4.20
2023-03-18T12:09:01.076Z,4.50
2023-03-18T12:09:59.653Z,4.50
2023-03-18T12:10:59.624Z,4.50
2023-03-18T12:11:59.613Z,4.30
2023-03-18T12:12:59.617Z,5.00
2023-03-18T12:13:59.614Z,4.40
2023-03-18T12:14:59.582Z,4.00
2023-03-18T12:15:59.589Z,4.00
2023-03-18T12:16:59.564Z,3.70
2023-03-18T12:17:59.628Z,4.70
2023-03-18T12:18:59.596Z,4.10
2023-03-18T12:19:59.539Z,4.40
2023-03-18T12:20:59.518Z,4.20
2023-03-18T12:21:59.520Z,4.30
2023-03-18T12:22:59.505Z,4.00
2023-03-18T12:23:59.498Z,3.80
2023-03-18T12:24:59.518Z,4.10
2023-03-18T12:25:59.468Z,3.60
2023-03-18T12:26:59.448Z,4.10
2023-03-18T12:27:59.452Z,4.00
2023-03-18T12:29:01.599Z,3.80
2023-03-18T12:29:59.441Z,4.40
2023-03-18T12:30:59.422Z,3.90
2023-03-18T12:31:59.468Z,4.10
2023-03-18T12:32:59.451Z,4.60
2023-03-18T12:33:59.394Z,3.90
2023-03-18T12:34:59.380Z,3.70
2023-03-18T12:35:59.399Z,4.10
2023-03-18T12:36:59.352Z,4.10
2023-03-18T12:37:59.355Z,3.80
2023-03-18T12:38:59.343Z,4.00
2023-03-18T12:39:59.319Z,3.90
2023-03-18T12:40:59.308Z,4.00
2023-03-18T12:41:59.299Z,4.30
2023-03-18T12:42:59.278Z,4.60
2023-03-18T12:43:59.299Z,4.70
2023-03-18T12:44:59.286Z,4.00
2023-03-18T12:45:59.303Z,3.90
2023-03-18T12:46:59.240Z,4.30
2023-03-18T12:47:59.249Z,3.80
2023-03-18T12:48:59.232Z,4.00
2023-03-18T12:49:59.220Z,4.30
2023-03-18T12:50:59.205Z,4.10
2023-03-18T12:51:59.195Z,4.10
2023-03-18T12:52:59.200Z,4.10
2023-03-18T12:53:59.185Z,4.10
2023-03-18T12:54:59.161Z,4.20
2023-03-18T12:55:59.165Z,4.00
2023-03-18T12:56:59.136Z,4.20
2023-03-18T12:57:59.127Z,4.00
2023-03-18T12:58:59.126Z,3.80
2023-03-18T12:59:59.153Z,3.30
2023-03-18T13:00:59.222Z,4.10
2023-03-18T13:01:59.141Z,3.80
2023-03-18T13:02:59.143Z,4.00
2023-03-18T13:03:59.086Z,4.40
2023-03-18T13:04:59.053Z,3.80
2023-03-18T13:05:59.045Z,3.90
2023-03-18T13:06:59.034Z,3.90
2023-03-18T13:07:59.015Z,3.70
2023-03-18T13:08:59.016Z,4.30
2023-03-18T13:09:59.714Z,3.50
2023-03-18T13:10:58.987Z,3.60
2023-03-18T13:11:58.998Z,3.90
2023-03-18T13:12:58.968Z,3.80
2023-03-18T13:13:58.968Z,3.60
2023-03-18T13:14:58.944Z,4.00
2023-03-18T13:15:58.938Z,3.50